Time;durP1;ratioP1;P1;durP2;ratioP2;P2;SDS_P1;SDS_P2;PMS_P1;PMS_P2;Temp;Humidity;BMP_temperature;BMP_pressure;BME280_temperature;BME280_humidity;BME280_pressure;Samples;Min_cycle;Max_cycle;Signal;HPM_P1;HPM_P2
2023/07/08 00:00:52;;;;;;;7.60;3.50;;;;;;;;;;5071005;28;20236;-68
2023/07/08 00:03:18;;;;;;;6.32;3.85;;;;;;;;;;5078688;28;20193;-68
2023/07/08 00:05:45;;;;;;;4.80;3.60;;;;;;;;;;5078776;28;20245;-69
2023/07/08 00:08:13;;;;;;;7.43;4.00;;;;;;;;;;5073366;28;20184;-68
2023/07/08 00:10:38;;;;;;;5.43;3.63;;;;;;;;;;5071724;28;20540;-68
2023/07/08 00:13:03;;;;;;;8.27;3.90;;;;;;;;;;5069029;28;20193;-68
2023/07/08 00:15:33;;;;;;;8.55;3.72;;;;;;;;;;5089272;28;20599;-69
2023/07/08 00:18:00;;;;;;;10.68;3.83;;;;;;;;;;5083372;28;20192;-68
2023/07/08 00:20:32;;;;;;;11.02;4.10;;;;;;;;;;5085651;28;20191;-67
2023/07/08 00:23:01;;;;;;;5.50;3.90;;;;;;;;;;5084074;28;20221;-68
2023/07/08 00:25:30;;;;;;;7.45;3.92;;;;;;;;;;5083264;28;20193;-67
2023/07/08 00:27:56;;;;;;;6.05;3.85;;;;;;;;;;5085512;28;20200;-68
2023/07/08 00:30:23;;;;;;;4.40;3.80;;;;;;;;;;5077159;28;20188;-69
2023/07/08 00:32:53;;;;;;;8.45;4.13;;;;;;;;;;5072373;28;20197;-68
2023/07/08 00:35:38;;;;;;;10.10;4.22;;;;;;;;;;5082618;28;20636;-68
2023/07/08 00:38:29;;;;;;;6.05;4.00;;;;;;;;;;5079066;28;20188;-68
2023/07/08 00:41:13;;;;;;;9.63;4.50;;;;;;;;;;5079132;28;20234;-68
2023/07/08 00:43:47;;;;;;;7.78;4.15;;;;;;;;;;5079241;28;20274;-68
2023/07/08 00:46:26;;;;;;;6.43;4.03;;;;;;;;;;5072514;28;20207;-68
2023/07/08 00:48:57;;;;;;;10.27;4.57;;;;;;;;;;5086887;28;20283;-68
2023/07/08 00:51:23;;;;;;;5.90;3.72;;;;;;;;;;5080598;28;20187;-68
2023/07/08 00:53:49;;;;;;;6.32;4.03;;;;;;;;;;5080862;28;20587;-68
2023/07/08 00:56:20;;;;;;;8.27;4.00;;;;;;;;;;5072933;28;20211;-68
2023/07/08 00:58:53;;;;;;;6.63;3.92;;;;;;;;;;5068303;28;20192;-68
2023/07/08 01:01:18;;;;;;;9.88;4.65;;;;;;;;;;5078407;28;20217;-68
2023/07/08 01:03:49;;;;;;;6.63;4.00;;;;;;;;;;5071639;28;20200;-68
2023/07/08 01:06:19;;;;;;;6.63;4.18;;;;;;;;;;5080742;28;20668;-68
2023/07/08 01:08:45;;;;;;;7.53;4.28;;;;;;;;;;5073650;28;20613;-68
2023/07/08 01:11:11;;;;;;;7.95;4.32;;;;;;;;;;5085664;28;20647;-68
2023/07/08 01:13:43;;;;;;;7.45;4.03;;;;;;;;;;5076516;28;20259;-68
2023/07/08 01:16:09;;;;;;;8.98;4.10;;;;;;;;;;5074430;28;20635;-68
2023/07/08 01:18:35;;;;;;;9.18;4.47;;;;;;;;;;5081623;28;20196;-68
2023/07/08 01:21:22;;;;;;;10.43;4.53;;;;;;;;;;5073431;28;20631;-68
2023/07/08 01:23:47;;;;;;;8.20;4.05;;;;;;;;;;5066656;28;20224;-67
2023/07/08 01:26:13;;;;;;;15.27;4.68;;;;;;;;;;5076625;28;20247;-68
2023/07/08 01:28:38;;;;;;;5.80;4.30;;;;;;;;;;5084414;28;20192;-68
2023/07/08 01:31:04;;;;;;;6.00;4.13;;;;;;;;;;5085080;28;20200;-68
2023/07/08 01:33:30;;;;;;;8.18;4.45;;;;;;;;;;5081640;28;20188;-68
2023/07/08 01:35:55;;;;;;;4.75;4.10;;;;;;;;;;5075399;28;20559;-68
2023/07/08 01:38:26;;;;;;;7.22;4.32;;;;;;;;;;5073454;28;20527;-67
2023/07/08 01:40:55;;;;;;;7.78;4.63;;;;;;;;;;5080523;28;20192;-67
2023/07/08 01:43:20;;;;;;;8.02;4.55;;;;;;;;;;5069743;28;20224;-67
2023/07/08 01:45:47;;;;;;;10.13;4.68;;;;;;;;;;5078737;28;20220;-68
2023/07/08 01:48:16;;;;;;;6.30;4.55;;;;;;;;;;5082772;28;20192;-68
2023/07/08 01:50:50;;;;;;;6.57;4.82;;;;;;;;;;5081004;28;20707;-68
2023/07/08 01:53:19;;;;;;;6.32;4.78;;;;;;;;;;5084242;28;20244;-68
2023/07/08 01:55:44;;;;;;;6.40;4.88;;;;;;;;;;5079601;28;20208;-68
2023/07/08 01:58:10;;;;;;;7.70;4.35;;;;;;;;;;5073986;28;20598;-68
2023/07/08 02:00:35;;;;;;;7.85;4.82;;;;;;;;;;5086638;28;20295;-68
2023/07/08 02:03:01;;;;;;;10.98;5.40;;;;;;;;;;5085581;28;20219;-68
2023/07/08 02:05:26;;;;;;;6.40;4.43;;;;;;;;;;5078519;28;20212;-68
2023/07/08 02:07:51;;;;;;;8.63;4.68;;;;;;;;;;5075886;28;20614;-68
2023/07/08 02:10:17;;;;;;;8.43;4.75;;;;;;;;;;5074968;28;20200;-68
2023/07/08 02:12:42;;;;;;;7.15;4.45;;;;;;;;;;5086628;28;20184;-68
2023/07/08 02:15:09;;;;;;;9.32;5.07;;;;;;;;;;5086999;28;20274;-68
2023/07/08 02:17:34;;;;;;;6.93;5.32;;;;;;;;;;5069830;28;20259;-68
2023/07/08 02:20:00;;;;;;;7.82;5.10;;;;;;;;;;5071472;28;20204;-68
2023/07/08 02:22:25;;;;;;;6.53;4.88;;;;;;;;;;5071198;28;20659;-69
2023/07/08 02:24:50;;;;;;;6.60;5.07;;;;;;;;;;5082178;28;20225;-68
2023/07/08 02:27:16;;;;;;;9.10;4.88;;;;;;;;;;5084671;28;20635;-68
2023/07/08 02:29:42;;;;;;;9.10;5.30;;;;;;;;;;5087413;28;20214;-68
2023/07/08 02:32:09;;;;;;;11.82;5.50;;;;;;;;;;5076920;28;20679;-68
2023/07/08 02:34:35;;;;;;;6.75;4.85;;;;;;;;;;5068524;28;20443;-68
2023/07/08 02:37:01;;;;;;;8.50;5.05;;;;;;;;;;5091135;28;20608;-68
2023/07/08 02:39:26;;;;;;;11.05;5.18;;;;;;;;;;5089434;28;20227;-68
2023/07/08 02:41:52;;;;;;;7.70;5.15;;;;;;;;;;5087051;28;20238;-68
2023/07/08 02:44:17;;;;;;;7.60;5.20;;;;;;;;;;5090185;28;20214;-68
2023/07/08 02:46:42;;;;;;;7.30;4.88;;;;;;;;;;5087020;28;20240;-68
2023/07/08 02:49:08;;;;;;;9.10;5.18;;;;;;;;;;5078765;28;20715;-69
2023/07/08 02:51:33;;;;;;;8.98;5.43;;;;;;;;;;5088810;28;20184;-72
2023/07/08 02:53:59;;;;;;;5.95;5.00;;;;;;;;;;5085115;28;20195;-68
2023/07/08 02:56:26;;;;;;;6.60;5.28;;;;;;;;;;5087390;28;20666;-69
2023/07/08 02:58:52;;;;;;;6.18;4.80;;;;;;;;;;5079934;28;20550;-68
2023/07/08 03:01:17;;;;;;;10.63;5.90;;;;;;;;;;5078399;28;20209;-68
2023/07/08 03:03:44;;;;;;;10.23;5.75;;;;;;;;;;5070504;28;20526;-68
2023/07/08 03:06:10;;;;;;;10.27;5.50;;;;;;;;;;5082209;28;20318;-68
2023/07/08 03:08:36;;;;;;;8.40;5.20;;;;;;;;;;5076402;28;20370;-68
2023/07/08 03:11:03;;;;;;;8.50;5.20;;;;;;;;;;5084774;28;20471;-68
2023/07/08 03:13:30;;;;;;;10.63;5.15;;;;;;;;;;5070921;28;20555;-69
2023/07/08 03:15:59;;;;;;;7.63;5.45;;;;;;;;;;5084363;28;20199;-70
2023/07/08 03:18:26;;;;;;;8.10;4.90;;;;;;;;;;5069594;28;20195;-67
2023/07/08 03:20:52;;;;;;;6.70;4.93;;;;;;;;;;5080660;28;20184;-67
2023/07/08 03:23:17;;;;;;;9.38;5.57;;;;;;;;;;5086722;28;20188;-67
2023/07/08 03:25:43;;;;;;;7.38;5.55;;;;;;;;;;5079803;28;20253;-67
2023/07/08 03:28:14;;;;;;;8.20;5.45;;;;;;;;;;5076622;28;20196;-68
2023/07/08 03:30:43;;;;;;;10.32;5.53;;;;;;;;;;5091200;28;20267;-68
2023/07/08 03:33:09;;;;;;;8.25;5.22;;;;;;;;;;5084007;28;20200;-68
2023/07/08 03:35:35;;;;;;;7.53;5.15;;;;;;;;;;5076019;28;20173;-68
2023/07/08 03:38:00;;;;;;;10.75;5.68;;;;;;;;;;5083806;28;20571;-67
2023/07/08 03:40:26;;;;;;;9.52;6.20;;;;;;;;;;5079003;28;20245;-68
2023/07/08 03:42:51;;;;;;;9.20;5.88;;;;;;;;;;5089176;28;20228;-68
2023/07/08 03:45:17;;;;;;;7.03;5.63;;;;;;;;;;5088904;28;20247;-68
2023/07/08 03:47:42;;;;;;;8.20;5.50;;;;;;;;;;5088698;28;20600;-67
2023/07/08 03:50:19;;;;;;;6.65;5.50;;;;;;;;;;5086695;28;20188;-68
2023/07/08 03:52:46;;;;;;;9.13;6.00;;;;;;;;;;5081094;28;20188;-69
2023/07/08 03:55:11;;;;;;;9.98;5.50;;;;;;;;;;5075860;28;20243;-68
2023/07/08 03:57:37;;;;;;;7.88;5.40;;;;;;;;;;5089912;28;20176;-67
2023/07/08 04:00:03;;;;;;;9.05;5.05;;;;;;;;;;5073475;28;20231;-68
2023/07/08 04:02:28;;;;;;;11.25;5.32;;;;;;;;;;5077842;28;20424;-68
2023/07/08 04:04:54;;;;;;;8.43;5.70;;;;;;;;;;5069173;28;20221;-68
2023/07/08 04:07:19;;;;;;;8.10;5.30;;;;;;;;;;5075913;28;20193;-68
2023/07/08 04:09:49;;;;;;;10.90;5.85;;;;;;;;;;5069443;28;20200;-68
2023/07/08 04:12:15;;;;;;;12.45;5.75;;;;;;;;;;5084181;28;20180;-68
2023/07/08 04:14:42;;;;;;;9.93;5.22;;;;;;;;;;5080164;28;20264;-68
2023/07/08 04:17:08;;;;;;;7.47;5.25;;;;;;;;;;5085072;28;20192;-67
2023/07/08 04:19:34;;;;;;;9.20;5.35;;;;;;;;;;5089178;28;20236;-68
2023/07/08 04:22:02;;;;;;;8.05;5.35;;;;;;;;;;5079563;28;20196;-68
2023/07/08 04:24:27;;;;;;;9.55;5.00;;;;;;;;;;5073524;28;20176;-67
2023/07/08 04:26:53;;;;;;;7.22;5.38;;;;;;;;;;5086816;28;20707;-67
2023/07/08 04:29:20;;;;;;;10.05;5.82;;;;;;;;;;5074689;28;20197;-68
2023/07/08 04:31:46;;;;;;;10.05;5.50;;;;;;;;;;5089755;28;20192;-68
2023/07/08 04:34:12;;;;;;;7.80;5.18;;;;;;;;;;5086537;28;20489;-68
2023/07/08 04:36:37;;;;;;;9.88;5.18;;;;;;;;;;5073367;28;20533;-68
2023/07/08 04:39:04;;;;;;;7.60;5.15;;;;;;;;;;5076051;28;20189;-68
2023/07/08 04:41:30;;;;;;;8.25;5.05;;;;;;;;;;5083949;28;20195;-68
2023/07/08 04:43:57;;;;;;;8.48;5.25;;;;;;;;;;5086631;28;20707;-67
2023/07/08 04:46:34;;;;;;;6.57;4.70;;;;;;;;;;5087906;28;20195;-67
2023/07/08 04:49:03;;;;;;;7.75;5.63;;;;;;;;;;5079050;28;20207;-68
2023/07/08 04:51:28;;;;;;;7.55;5.47;;;;;;;;;;5072198;28;20279;-68
2023/07/08 04:53:54;;;;;;;9.18;5.05;;;;;;;;;;5074806;28;20743;-68
2023/07/08 04:56:19;;;;;;;8.68;5.28;;;;;;;;;;5078977;28;20191;-68
2023/07/08 04:58:44;;;;;;;7.07;5.55;;;;;;;;;;5084415;28;20204;-68
2023/07/08 05:01:10;;;;;;;7.18;4.90;;;;;;;;;;5076133;28;20294;-68
2023/07/08 05:03:35;;;;;;;8.00;5.55;;;;;;;;;;5071328;28;20208;-68
2023/07/08 05:06:01;;;;;;;9.68;5.13;;;;;;;;;;5070950;28;20597;-68
2023/07/08 05:08:26;;;;;;;5.93;5.20;;;;;;;;;;5078178;28;20199;-69
2023/07/08 05:10:51;;;;;;;6.82;5.13;;;;;;;;;;5084381;28;20180;-68
2023/07/08 05:13:17;;;;;;;9.50;5.28;;;;;;;;;;5075473;28;20737;-68
2023/07/08 05:15:42;;;;;;;7.45;4.72;;;;;;;;;;5077685;28;20181;-68
2023/07/08 05:18:08;;;;;;;7.78;4.80;;;;;;;;;;5077822;28;20664;-68
2023/07/08 05:20:35;;;;;;;7.90;5.25;;;;;;;;;;5070359;28;20560;-70
2023/07/08 05:23:01;;;;;;;7.15;4.90;;;;;;;;;;5084913;28;20184;-69
2023/07/08 05:25:27;;;;;;;6.53;4.78;;;;;;;;;;5082899;28;20629;-68
2023/07/08 05:27:53;;;;;;;10.38;5.28;;;;;;;;;;5081588;28;20908;-68
2023/07/08 05:30:18;;;;;;;6.53;4.70;;;;;;;;;;5068025;28;20197;-68
2023/07/08 05:32:44;;;;;;;6.63;4.60;;;;;;;;;;5071929;28;20193;-68
2023/07/08 05:35:10;;;;;;;7.60;5.10;;;;;;;;;;5076647;28;20191;-68
2023/07/08 05:37:36;;;;;;;11.48;4.90;;;;;;;;;;5079898;28;20203;-68
2023/07/08 05:40:04;;;;;;;11.05;5.30;;;;;;;;;;5075631;28;20192;-68
2023/07/08 05:42:30;;;;;;;6.38;4.95;;;;;;;;;;5077762;28;20295;-68
2023/07/08 05:44:55;;;;;;;7.55;5.32;;;;;;;;;;5069530;28;20295;-68
2023/07/08 05:47:21;;;;;;;9.77;5.50;;;;;;;;;;5071375;28;20255;-68
2023/07/08 05:49:47;;;;;;;6.07;4.93;;;;;;;;;;5068580;28;20341;-68
2023/07/08 05:52:13;;;;;;;8.98;5.45;;;;;;;;;;5068345;28;20563;-69
2023/07/08 05:54:39;;;;;;;7.18;4.78;;;;;;;;;;5084696;28;20192;-68
2023/07/08 05:57:07;;;;;;;9.00;5.28;;;;;;;;;;5078087;28;20192;-68
2023/07/08 05:59:32;;;;;;;7.10;4.72;;;;;;;;;;5083752;28;20180;-68
2023/07/08 06:01:58;;;;;;;9.10;4.88;;;;;;;;;;5077591;28;20227;-68
2023/07/08 06:04:23;;;;;;;9.68;4.80;;;;;;;;;;5068184;28;20728;-68
2023/07/08 06:06:49;;;;;;;7.97;5.20;;;;;;;;;;5081830;28;20203;-68
2023/07/08 06:09:14;;;;;;;7.38;5.00;;;;;;;;;;5083779;28;20196;-68
2023/07/08 06:11:39;;;;;;;8.48;4.60;;;;;;;;;;5079529;28;20188;-68
2023/07/08 06:14:05;;;;;;;7.45;4.72;;;;;;;;;;5073804;28;20501;-68
2023/07/08 06:16:30;;;;;;;7.00;4.90;;;;;;;;;;5088976;28;20272;-69
2023/07/08 06:18:57;;;;;;;8.32;4.90;;;;;;;;;;5078536;28;20218;-68
2023/07/08 06:21:22;;;;;;;9.73;5.32;;;;;;;;;;5090495;28;20188;-68
2023/07/08 06:23:48;;;;;;;11.10;4.80;;;;;;;;;;5083919;28;20242;-68
2023/07/08 06:26:13;;;;;;;8.07;4.78;;;;;;;;;;5075738;28;20219;-68
2023/07/08 06:28:38;;;;;;;8.43;5.15;;;;;;;;;;5082552;28;20725;-68
2023/07/08 06:31:04;;;;;;;9.18;5.25;;;;;;;;;;5077634;28;20222;-68
2023/07/08 06:33:29;;;;;;;7.65;3.97;;;;;;;;;;5074119;28;20246;-68
2023/07/08 06:35:54;;;;;;;6.50;4.25;;;;;;;;;;5069904;28;20188;-68
2023/07/08 06:38:20;;;;;;;7.15;4.65;;;;;;;;;;5073123;28;20185;-68
2023/07/08 06:40:45;;;;;;;8.05;4.57;;;;;;;;;;5076526;28;20667;-68
2023/07/08 06:43:11;;;;;;;7.70;3.95;;;;;;;;;;5084963;28;20220;-68
2023/07/08 06:45:36;;;;;;;8.65;4.50;;;;;;;;;;5075367;28;20467;-68
2023/07/08 06:48:01;;;;;;;10.98;4.55;;;;;;;;;;5082029;28;20188;-68
2023/07/08 06:50:27;;;;;;;9.45;4.05;;;;;;;;;;5069622;28;20197;-69
2023/07/08 06:52:52;;;;;;;6.95;4.05;;;;;;;;;;5077183;28;20280;-69
2023/07/08 06:55:18;;;;;;;6.03;4.40;;;;;;;;;;5072489;28;20537;-69
2023/07/08 06:57:43;;;;;;;9.15;4.43;;;;;;;;;;5080462;28;20652;-68
2023/07/08 07:00:10;;;;;;;6.47;4.53;;;;;;;;;;4367372;28;10000823;-69
2023/07/08 07:02:36;;;;;;;7.82;4.45;;;;;;;;;;5079578;28;20723;-68
2023/07/08 07:05:02;;;;;;;6.05;3.95;;;;;;;;;;5081543;28;20290;-68
2023/07/08 07:07:27;;;;;;;6.65;4.20;;;;;;;;;;5071860;28;20492;-69
2023/07/08 07:09:54;;;;;;;6.07;4.25;;;;;;;;;;5078454;28;20281;-68
2023/07/08 07:12:20;;;;;;;7.25;4.00;;;;;;;;;;5070992;28;20509;-68
2023/07/08 07:14:45;;;;;;;7.97;4.50;;;;;;;;;;5081936;28;20184;-68
2023/07/08 07:17:10;;;;;;;6.40;4.50;;;;;;;;;;5078777;28;20274;-68
2023/07/08 07:19:36;;;;;;;6.60;4.07;;;;;;;;;;5078891;28;20192;-68
2023/07/08 07:22:02;;;;;;;6.97;3.85;;;;;;;;;;5076002;28;20201;-68
2023/07/08 07:24:27;;;;;;;9.07;4.28;;;;;;;;;;5074062;28;20207;-69
2023/07/08 07:26:52;;;;;;;8.70;4.05;;;;;;;;;;5082170;28;20196;-69
2023/07/08 07:29:18;;;;;;;7.68;4.35;;;;;;;;;;5084950;28;20752;-69
2023/07/08 07:31:43;;;;;;;4.30;3.65;;;;;;;;;;5079094;28;20210;-69
2023/07/08 07:34:11;;;;;;;7.55;3.97;;;;;;;;;;5086221;28;20302;-69
2023/07/08 07:36:37;;;;;;;5.57;3.85;;;;;;;;;;5083816;28;20172;-69
2023/07/08 07:39:02;;;;;;;6.07;4.05;;;;;;;;;;5078039;28;20199;-70
2023/07/08 07:41:28;;;;;;;10.82;4.07;;;;;;;;;;5082633;28;20192;-68
2023/07/08 07:43:53;;;;;;;7.20;4.18;;;;;;;;;;5078734;28;20236;-68
2023/07/08 07:46:18;;;;;;;8.30;4.10;;;;;;;;;;5071870;28;20205;-67
2023/07/08 07:48:44;;;;;;;6.57;4.10;;;;;;;;;;5084022;28;20193;-68
2023/07/08 07:51:10;;;;;;;6.97;3.63;;;;;;;;;;5085323;28;20214;-67
2023/07/08 07:53:37;;;;;;;6.22;3.60;;;;;;;;;;5070867;28;20188;-67
2023/07/08 07:56:03;;;;;;;5.47;4.03;;;;;;;;;;5078840;28;20188;-67
2023/07/08 07:58:30;;;;;;;7.50;4.68;;;;;;;;;;5083696;28;20192;-66
2023/07/08 08:00:56;;;;;;;5.45;3.70;;;;;;;;;;5087860;28;20223;-67
2023/07/08 08:03:21;;;;;;;5.85;3.65;;;;;;;;;;5086083;28;20192;-66
2023/07/08 08:05:47;;;;;;;6.20;3.65;;;;;;;;;;5087033;28;20603;-67
2023/07/08 08:08:13;;;;;;;6.70;3.90;;;;;;;;;;5077954;28;20275;-67
2023/07/08 08:10:38;;;;;;;7.35;3.83;;;;;;;;;;5080430;28;20188;-67
2023/07/08 08:13:04;;;;;;;5.07;3.45;;;;;;;;;;5086316;28;20188;-67
2023/07/08 08:15:29;;;;;;;6.68;3.60;;;;;;;;;;5085582;28;20263;-67
2023/07/08 08:17:55;;;;;;;5.80;4.00;;;;;;;;;;5074923;28;20193;-67
2023/07/08 08:20:23;;;;;;;4.90;3.70;;;;;;;;;;5073759;28;20196;-67
2023/07/08 08:22:48;;;;;;;6.22;3.78;;;;;;;;;;5083212;28;20184;-67
2023/07/08 08:25:15;;;;;;;5.20;3.53;;;;;;;;;;5077227;28;20266;-67
2023/07/08 08:27:40;;;;;;;3.38;3.03;;;;;;;;;;5079889;28;20246;-68
2023/07/08 08:30:07;;;;;;;6.55;3.80;;;;;;;;;;5079128;28;20231;-67
2023/07/08 08:32:32;;;;;;;6.63;4.05;;;;;;;;;;5079054;28;20195;-67
2023/07/08 08:34:57;;;;;;;9.63;4.15;;;;;;;;;;5074210;28;20185;-67
2023/07/08 08:37:23;;;;;;;6.80;3.40;;;;;;;;;;5074156;28;20196;-67
2023/07/08 08:39:48;;;;;;;6.80;4.05;;;;;;;;;;5084597;28;20224;-67
2023/07/08 08:42:46;;;;;;;4.45;3.33;;;;;;;;;;5074835;28;20232;-67
2023/07/08 08:45:17;;;;;;;5.78;3.70;;;;;;;;;;5072437;28;20220;-67
2023/07/08 08:47:45;;;;;;;4.93;3.90;;;;;;;;;;5077849;28;20712;-67
2023/07/08 08:50:31;;;;;;;6.57;4.20;;;;;;;;;;5081372;28;20176;-68
2023/07/08 08:53:00;;;;;;;4.57;3.67;;;;;;;;;;5071887;28;20231;-69
2023/07/08 08:55:26;;;;;;;5.13;3.83;;;;;;;;;;5079952;28;20195;-68
2023/07/08 08:58:14;;;;;;;8.45;4.13;;;;;;;;;;5084715;28;20180;-68
2023/07/08 09:00:55;;;;;;;6.13;3.75;;;;;;;;;;5071597;28;20204;-67
2023/07/08 09:03:45;;;;;;;5.20;3.28;;;;;;;;;;5073709;28;20726;-68
2023/07/08 09:06:15;;;;;;;7.20;4.25;;;;;;;;;;5079091;28;20216;-68
2023/07/08 09:08:41;;;;;;;8.90;3.22;;;;;;;;;;5082054;28;20203;-68
2023/07/08 09:11:44;;;;;;;5.63;3.70;;;;;;;;;;5081621;28;20180;-67
2023/07/08 09:14:17;;;;;;;6.80;4.15;;;;;;;;;;5071360;28;20575;-68
2023/07/08 09:16:53;;;;;;;4.07;3.53;;;;;;;;;;5076981;28;20176;-67
2023/07/08 09:19:26;;;;;;;4.95;3.88;;;;;;;;;;5083258;28;20187;-67
2023/07/08 09:21:56;;;;;;;6.60;3.35;;;;;;;;;;5066267;28;20191;-67
2023/07/08 09:24:32;;;;;;;7.38;4.07;;;;;;;;;;5075298;28;20245;-67
2023/07/08 09:27:00;;;;;;;5.78;3.53;;;;;;;;;;5075659;28;20543;-68
2023/07/08 09:29:26;;;;;;;6.25;3.80;;;;;;;;;;5079764;28;20199;-68
2023/07/08 09:31:51;;;;;;;6.55;3.80;;;;;;;;;;5082865;28;20199;-68
2023/07/08 09:34:42;;;;;;;6.35;4.15;;;;;;;;;;4375953;28;10000723;-66
2023/07/08 09:37:29;;;;;;;7.93;3.50;;;;;;;;;;5065734;28;20307;-69
2023/07/08 09:39:56;;;;;;;6.63;3.75;;;;;;;;;;5077773;28;20219;-67
2023/07/08 09:42:27;;;;;;;6.15;4.10;;;;;;;;;;5063707;28;20231;-67
2023/07/08 09:45:01;;;;;;;7.43;4.15;;;;;;;;;;5065670;28;20251;-67
2023/07/08 09:47:32;;;;;;;3.90;3.50;;;;;;;;;;5079521;28;20358;-68
2023/07/08 09:49:58;;;;;;;7.40;3.85;;;;;;;;;;5085674;28;20188;-66
2023/07/08 09:52:24;;;;;;;6.85;4.40;;;;;;;;;;5076221;28;20192;-68
2023/07/08 09:54:49;;;;;;;5.82;3.88;;;;;;;;;;5087367;28;20218;-69
2023/07/08 09:57:18;;;;;;;6.35;4.00;;;;;;;;;;5079058;28;20192;-67
2023/07/08 09:59:48;;;;;;;5.43;3.85;;;;;;;;;;5086374;28;20195;-68
2023/07/08 10:02:27;;;;;;;6.80;4.00;;;;;;;;;;5076136;28;20376;-67
2023/07/08 10:04:55;;;;;;;6.38;4.13;;;;;;;;;;5086495;28;20204;-67
2023/07/08 10:07:20;;;;;;;5.22;3.80;;;;;;;;;;5080793;28;20188;-68
2023/07/08 10:09:53;;;;;;;5.03;4.00;;;;;;;;;;5088246;28;20192;-68
2023/07/08 10:12:19;;;;;;;5.15;4.20;;;;;;;;;;5073902;28;20575;-67
2023/07/08 10:14:57;;;;;;;5.63;4.20;;;;;;;;;;5082901;28;20192;-67
2023/07/08 10:17:23;;;;;;;7.03;4.30;;;;;;;;;;5075222;28;20195;-66
2023/07/08 10:19:49;;;;;;;7.78;4.55;;;;;;;;;;5071002;28;20193;-67
2023/07/08 10:22:23;;;;;;;6.38;4.97;;;;;;;;;;5075039;28;20557;-68
2023/07/08 10:25:16;;;;;;;5.60;4.05;;;;;;;;;;5080189;28;20527;-68
2023/07/08 10:27:57;;;;;;;6.45;4.60;;;;;;;;;;5076112;28;20692;-67
2023/07/08 10:30:25;;;;;;;8.18;4.47;;;;;;;;;;5087828;28;20184;-67
2023/07/08 10:33:17;;;;;;;6.20;4.55;;;;;;;;;;5086391;28;20184;-68
2023/07/08 10:36:21;;;;;;;9.15;4.70;;;;;;;;;;5084362;28;20263;-68
2023/07/08 10:38:53;;;;;;;9.40;4.45;;;;;;;;;;5077694;28;20761;-68
2023/07/08 10:41:36;;;;;;;6.20;4.22;;;;;;;;;;5077699;28;20197;-69
2023/07/08 10:44:10;;;;;;;9.38;4.15;;;;;;;;;;5086866;28;20195;-68
2023/07/08 10:46:44;;;;;;;8.95;4.28;;;;;;;;;;5078020;28;20214;-68
2023/07/08 10:49:31;;;;;;;7.82;4.25;;;;;;;;;;5086095;28;20191;-68
2023/07/08 10:52:10;;;;;;;8.50;4.53;;;;;;;;;;5088026;28;20214;-67
2023/07/08 10:54:43;;;;;;;6.55;4.63;;;;;;;;;;5081636;28;20671;-67
2023/07/08 10:57:33;;;;;;;6.88;4.47;;;;;;;;;;5085276;28;20605;-67
2023/07/08 11:00:15;;;;;;;8.20;4.50;;;;;;;;;;5082399;28;20193;-67
2023/07/08 11:02:55;;;;;;;9.25;5.00;;;;;;;;;;5081050;28;20491;-67
2023/07/08 11:05:26;;;;;;;7.72;4.78;;;;;;;;;;5078621;28;20303;-68
2023/07/08 11:07:58;;;;;;;7.45;5.00;;;;;;;;;;5076017;28;20283;-67
2023/07/08 11:10:32;;;;;;;5.30;4.60;;;;;;;;;;5088513;28;20284;-68
2023/07/08 11:13:13;;;;;;;5.53;4.63;;;;;;;;;;5079120;28;20199;-67
2023/07/08 11:15:48;;;;;;;6.68;4.60;;;;;;;;;;5072718;28;20184;-68
2023/07/08 11:18:38;;;;;;;6.70;5.07;;;;;;;;;;5084126;28;20184;-68
2023/07/08 11:21:09;;;;;;;9.52;4.63;;;;;;;;;;5083447;28;20569;-68
2023/07/08 11:23:41;;;;;;;7.53;5.15;;;;;;;;;;5081287;28;20192;-66
2023/07/08 11:26:15;;;;;;;7.05;5.03;;;;;;;;;;5086405;28;20199;-67
2023/07/08 11:28:42;;;;;;;8.23;5.15;;;;;;;;;;5087093;28;20277;-68
2023/07/08 11:31:08;;;;;;;8.27;4.85;;;;;;;;;;5081326;28;20279;-68
2023/07/08 11:33:35;;;;;;;7.47;5.10;;;;;;;;;;5082627;28;20756;-68
2023/07/08 11:36:03;;;;;;;11.43;5.55;;;;;;;;;;5079234;28;20640;-68
2023/07/08 11:38:28;;;;;;;8.98;5.38;;;;;;;;;;5083417;28;20187;-68
2023/07/08 11:41:13;;;;;;;8.73;5.10;;;;;;;;;;5075722;28;20531;-67
2023/07/08 11:43:46;;;;;;;7.68;4.72;;;;;;;;;;5074849;28;20227;-67
2023/07/08 11:46:18;;;;;;;8.27;4.90;;;;;;;;;;5067644;28;20205;-67
2023/07/08 11:48:52;;;;;;;7.55;5.20;;;;;;;;;;5069915;28;20194;-68
2023/07/08 11:51:30;;;;;;;8.93;5.35;;;;;;;;;;5077531;28;20200;-68
2023/07/08 11:54:26;;;;;;;7.82;5.70;;;;;;;;;;5081338;28;20184;-67
2023/07/08 11:57:05;;;;;;;8.35;5.70;;;;;;;;;;5066434;28;20314;-68
2023/07/08 11:59:40;;;;;;;10.13;6.18;;;;;;;;;;5076512;28;20267;-68
2023/07/08 12:02:19;;;;;;;10.05;5.70;;;;;;;;;;5075142;28;20277;-67
2023/07/08 12:05:02;;;;;;;7.97;6.10;;;;;;;;;;5077318;28;20228;-67
2023/07/08 12:07:33;;;;;;;7.22;5.72;;;;;;;;;;5076138;28;20211;-67
2023/07/08 12:10:11;;;;;;;6.60;5.90;;;;;;;;;;5069778;28;20273;-66
2023/07/08 12:12:41;;;;;;;7.30;6.00;;;;;;;;;;5071175;28;20183;-67
2023/07/08 12:15:33;;;;;;;8.40;5.63;;;;;;;;;;5078000;28;20638;-67
2023/07/08 12:18:04;;;;;;;7.10;5.60;;;;;;;;;;5077836;28;20195;-66
2023/07/08 12:20:40;;;;;;;8.35;5.80;;;;;;;;;;5074495;28;20192;-66
2023/07/08 12:23:15;;;;;;;8.38;5.50;;;;;;;;;;5088305;28;20531;-65
2023/07/08 12:25:40;;;;;;;9.55;6.07;;;;;;;;;;5084830;28;20213;-66
2023/07/08 12:28:06;;;;;;;8.27;5.85;;;;;;;;;;5089772;28;20201;-67
2023/07/08 12:30:33;;;;;;;10.80;6.20;;;;;;;;;;5086051;28;20206;-67
2023/07/08 12:32:59;;;;;;;6.80;5.70;;;;;;;;;;5089124;28;20262;-67
2023/07/08 12:35:32;;;;;;;8.93;5.72;;;;;;;;;;5079031;28;20270;-68
2023/07/08 12:38:01;;;;;;;7.78;6.05;;;;;;;;;;5085807;28;20447;-67
2023/07/08 12:40:29;;;;;;;9.20;5.72;;;;;;;;;;5088837;28;20537;-67
2023/07/08 12:43:00;;;;;;;7.40;6.28;;;;;;;;;;5072115;28;20243;-67
2023/07/08 12:45:29;;;;;;;6.93;6.22;;;;;;;;;;5076772;28;20208;-65
2023/07/08 12:47:54;;;;;;;7.55;5.88;;;;;;;;;;5069142;28;20260;-66
2023/07/08 12:50:20;;;;;;;10.38;5.55;;;;;;;;;;5083284;28;20195;-66
2023/07/08 12:52:47;;;;;;;6.80;5.65;;;;;;;;;;5072385;28;20188;-66
2023/07/08 12:55:14;;;;;;;9.38;6.40;;;;;;;;;;5075065;28;20180;-66
2023/07/08 12:57:42;;;;;;;10.13;6.35;;;;;;;;;;5075776;28;20735;-68
2023/07/08 13:00:20;;;;;;;9.35;6.22;;;;;;;;;;5072219;28;20187;-67
2023/07/08 13:02:47;;;;;;;7.70;6.32;;;;;;;;;;5072875;28;20226;-67
2023/07/08 13:05:13;;;;;;;8.88;5.82;;;;;;;;;;5070351;28;20273;-67
2023/07/08 13:07:41;;;;;;;9.00;6.38;;;;;;;;;;5072028;28;20585;-67
2023/07/08 13:10:15;;;;;;;8.85;6.03;;;;;;;;;;5076240;28;20560;-68
2023/07/08 13:12:41;;;;;;;9.00;6.15;;;;;;;;;;5072293;28;20578;-67
2023/07/08 13:15:14;;;;;;;8.65;6.55;;;;;;;;;;5081088;28;20209;-67
2023/07/08 13:17:40;;;;;;;6.70;5.97;;;;;;;;;;5073486;28;20195;-67
2023/07/08 13:20:14;;;;;;;9.50;6.13;;;;;;;;;;5075541;28;20180;-66
2023/07/08 13:22:39;;;;;;;7.50;6.60;;;;;;;;;;5083028;28;20666;-67
2023/07/08 13:25:15;;;;;;;7.55;6.20;;;;;;;;;;5075937;28;20209;-69
2023/07/08 13:27:40;;;;;;;9.40;6.25;;;;;;;;;;5081937;28;20179;-66
2023/07/08 13:30:18;;;;;;;7.30;6.15;;;;;;;;;;5080272;28;20191;-66
2023/07/08 13:32:43;;;;;;;9.50;6.63;;;;;;;;;;5073885;28;20196;-67
2023/07/08 13:35:42;;;;;;;7.63;6.25;;;;;;;;;;5075899;28;20731;-68
2023/07/08 13:38:16;;;;;;;11.70;6.00;;;;;;;;;;5055079;28;20266;-66
2023/07/08 13:40:48;;;;;;;8.52;6.28;;;;;;;;;;5073811;28;20215;-67
2023/07/08 13:43:14;;;;;;;10.52;6.53;;;;;;;;;;5079398;28;20284;-67
2023/07/08 13:45:47;;;;;;;9.93;6.47;;;;;;;;;;5079766;28;20222;-68
2023/07/08 13:48:27;;;;;;;11.38;6.70;;;;;;;;;;5081636;28;20195;-69
2023/07/08 13:51:17;;;;;;;8.25;6.75;;;;;;;;;;5081945;28;20191;-68
2023/07/08 13:53:54;;;;;;;8.45;6.05;;;;;;;;;;5079599;28;20189;-68
2023/07/08 13:56:33;;;;;;;8.98;6.30;;;;;;;;;;5079789;28;20229;-68
2023/07/08 13:59:04;;;;;;;7.40;6.20;;;;;;;;;;5080310;28;20757;-67
2023/07/08 14:01:32;;;;;;;9.63;6.13;;;;;;;;;;4370291;28;10000781;-66
2023/07/08 14:04:02;;;;;;;9.10;6.10;;;;;;;;;;5078065;28;20191;-68
2023/07/08 14:06:38;;;;;;;10.35;6.43;;;;;;;;;;5081836;28;20214;-68
2023/07/08 14:09:18;;;;;;;8.18;6.20;;;;;;;;;;5064948;28;20195;-68
2023/07/08 14:11:45;;;;;;;9.45;6.82;;;;;;;;;;5069559;28;20272;-67
2023/07/08 14:14:11;;;;;;;8.60;6.40;;;;;;;;;;5073455;28;20215;-67
2023/07/08 14:16:41;;;;;;;7.25;5.93;;;;;;;;;;5072754;28;20198;-68
2023/07/08 14:19:19;;;;;;;6.63;6.00;;;;;;;;;;5075840;28;20265;-68
2023/07/08 14:21:45;;;;;;;7.10;5.93;;;;;;;;;;5076623;28;20700;-68
2023/07/08 14:24:12;;;;;;;10.93;7.03;;;;;;;;;;5072316;28;20320;-67
2023/07/08 14:26:42;;;;;;;10.05;6.57;;;;;;;;;;5076117;28;20250;-67
2023/07/08 14:29:08;;;;;;;11.80;6.38;;;;;;;;;;5074599;28;20690;-67
2023/07/08 14:31:33;;;;;;;8.52;6.35;;;;;;;;;;5077431;28;20179;-66
2023/07/08 14:34:06;;;;;;;8.95;5.88;;;;;;;;;;5071813;28;20274;-67
2023/07/08 14:36:32;;;;;;;8.07;6.50;;;;;;;;;;5073556;28;20271;-67
2023/07/08 14:38:58;;;;;;;10.40;6.63;;;;;;;;;;5072239;28;20572;-67
2023/07/08 14:41:24;;;;;;;11.10;6.25;;;;;;;;;;5073316;28;20195;-67
2023/07/08 14:43:50;;;;;;;10.20;7.70;;;;;;;;;;5086056;28;20243;-67
2023/07/08 14:46:16;;;;;;;11.20;6.80;;;;;;;;;;5075434;28;20282;-67
2023/07/08 14:48:42;;;;;;;9.13;6.53;;;;;;;;;;5076234;28;20262;-68
2023/07/08 14:51:07;;;;;;;7.45;6.65;;;;;;;;;;5086241;28;20283;-68
2023/07/08 14:53:33;;;;;;;9.35;6.95;;;;;;;;;;5075899;28;20344;-67